Time;durP1;ratioP1;P1;durP2;ratioP2;P2;SDS_P1;SDS_P2;PMS_P1;PMS_P2;Temp;Humidity;BMP_temperature;BMP_pressure;BME280_temperature;BME280_humidity;BME280_pressure;Samples;Min_cycle;Max_cycle;Signal;HPM_P1;HPM_P2
2022/06/09 00:01:43;;;;;;;;;;;;;;;19.38;nan;98768.75;4992980;28;19940;-73
2022/06/09 00:04:26;;;;;;;;;;;;;;;19.39;nan;98769.59;4992398;28;20397;-73
2022/06/09 00:06:58;;;;;;;;;;;;;;;19.43;nan;98765.47;4989427;28;19917;-73
2022/06/09 00:09:27;;;;;;;;;;;;;;;19.45;nan;98766.88;4992462;28;19918;-74
2022/06/09 00:11:54;;;;;;;;;;;;;;;19.44;nan;98762.53;4992307;28;19918;-74
2022/06/09 00:14:20;;;;;;;;;;;;;;;19.47;nan;98761.34;4991324;28;20008;-74
2022/06/09 00:16:46;;;;;;;;;;;;;;;19.46;nan;98775.75;4991445;28;19917;-74
2022/06/09 00:19:11;;;;;;;;;;;;;;;19.45;nan;98774.91;4992259;28;19983;-73
2022/06/09 00:21:37;;;;;;;;;;;;;;;19.47;nan;98782.72;4991037;28;20369;-74
2022/06/09 00:24:03;;;;;;;;;;;;;;;19.37;nan;98783.19;4991799;28;19918;-73
2022/06/09 00:26:29;;;;;;;;;;;;;;;19.31;nan;98772.56;4992092;28;19913;-74
2022/06/09 00:28:55;;;;;;;;;;;;;;;19.18;nan;98763.59;4992181;28;19921;-74
2022/06/09 00:31:20;;;;;;;;;;;;;;;19.19;nan;98761.72;4992373;28;19913;-73
2022/06/09 00:33:46;;;;;;;;;;;;;;;19.15;nan;98758.66;4992345;28;19952;-74
2022/06/09 00:36:11;;;;;;;;;;;;;;;19.11;nan;98762.81;4991771;28;20016;-74
2022/06/09 00:38:36;;;;;;;;;;;;;;;19.03;nan;98771.06;4991956;28;19917;-73
2022/06/09 00:41:02;;;;;;;;;;;;;;;18.97;nan;98771.94;4991863;28;20353;-74
2022/06/09 00:43:27;;;;;;;;;;;;;;;18.93;nan;98776.09;4992049;28;20406;-74
2022/06/09 00:46:11;;;;;;;;;;;;;;;18.91;nan;98780.81;4990667;28;20012;-73
2022/06/09 00:48:42;;;;;;;;;;;;;;;18.93;nan;98781.44;4992228;28;19996;-74
2022/06/09 00:51:10;;;;;;;;;;;;;;;18.86;nan;98775.31;4991651;28;19973;-74
2022/06/09 00:53:37;;;;;;;;;;;;;;;18.77;nan;98784.63;4991381;28;19918;-74
2022/06/09 00:56:03;;;;;;;;;;;;;;;18.76;nan;98778.44;4991890;28;20400;-74
2022/06/09 00:58:32;;;;;;;;;;;;;;;18.73;nan;98776.19;4989395;28;19922;-72
2022/06/09 01:01:00;;;;;;;;;;;;;;;18.74;nan;98772.50;4989561;28;19929;-73
2022/06/09 01:03:28;;;;;;;;;;;;;;;18.69;nan;98776.84;4988323;28;20374;-73
2022/06/09 01:05:58;;;;;;;;;;;;;;;18.57;nan;98783.88;4991637;28;20389;-74
2022/06/09 01:08:23;;;;;;;;;;;;;;;18.39;nan;98796.06;4991725;28;19918;-73
2022/06/09 01:10:49;;;;;;;;;;;;;;;18.22;nan;98794.88;4991994;28;19925;-73
2022/06/09 01:13:14;;;;;;;;;;;;;;;18.17;nan;98784.00;4987637;28;19921;-73
2022/06/09 01:15:46;;;;;;;;;;;;;;;18.14;nan;98787.13;4991939;28;19917;-73
2022/06/09 01:18:17;;;;;;;;;;;;;;;18.19;nan;98784.63;4991821;28;19964;-73
2022/06/09 01:20:51;;;;;;;;;;;;;;;18.14;nan;98787.13;4991830;28;19917;-74
2022/06/09 01:23:28;;;;;;;;;;;;;;;18.30;nan;98789.31;4991424;28;19929;-74
2022/06/09 01:26:11;;;;;;;;;;;;;;;18.40;nan;98789.69;4988836;28;20041;-74
2022/06/09 01:28:48;;;;;;;;;;;;;;;18.49;nan;98773.44;4991699;28;19917;-73
2022/06/09 01:31:20;;;;;;;;;;;;;;;18.44;nan;98784.72;4991655;28;19917;-73
2022/06/09 01:34:04;;;;;;;;;;;;;;;18.31;nan;98788.28;4988029;28;19918;-73
2022/06/09 01:36:36;;;;;;;;;;;;;;;18.21;nan;98793.22;4989625;28;19924;-73
2022/06/09 01:39:03;;;;;;;;;;;;;;;18.03;nan;98795.75;4992647;28;19922;-73
2022/06/09 01:41:28;;;;;;;;;;;;;;;18.11;nan;98798.19;4995209;28;19917;-73
2022/06/09 01:43:54;;;;;;;;;;;;;;;18.19;nan;98795.31;4995127;28;19928;-74
2022/06/09 01:46:22;;;;;;;;;;;;;;;18.23;nan;98796.53;4995446;28;20406;-74
2022/06/09 01:48:51;;;;;;;;;;;;;;;18.25;nan;98791.81;4994082;28;19917;-74
2022/06/09 01:51:19;;;;;;;;;;;;;;;18.23;nan;98791.19;4994029;28;19964;-74
2022/06/09 01:53:51;;;;;;;;;;;;;;;18.25;nan;98793.66;4990625;28;19921;-73
2022/06/09 01:56:20;;;;;;;;;;;;;;;18.30;nan;98802.66;4991247;28;19924;-74
2022/06/09 01:58:54;;;;;;;;;;;;;;;18.36;nan;98796.50;4995152;28;19918;-73
2022/06/09 02:01:22;;;;;;;;;;;;;;;18.39;nan;98792.56;4991755;28;19956;-73
2022/06/09 02:03:49;;;;;;;;;;;;;;;18.39;nan;98792.56;4995015;28;20313;-73
2022/06/09 02:06:16;;;;;;;;;;;;;;;18.37;nan;98786.63;4995023;28;19928;-73
2022/06/09 02:08:41;;;;;;;;;;;;;;;18.32;nan;98786.41;4994826;28;20000;-74
2022/06/09 02:11:09;;;;;;;;;;;;;;;18.21;nan;98793.22;4994344;28;20037;-73
2022/06/09 02:13:36;;;;;;;;;;;;;;;18.01;nan;98795.16;4994827;28;20439;-72
2022/06/09 02:16:03;;;;;;;;;;;;;;;17.93;nan;98784.69;4994505;28;19957;-74
2022/06/09 02:18:30;;;;;;;;;;;;;;;17.88;nan;98795.16;4994835;28;19925;-74
2022/06/09 02:20:57;;;;;;;;;;;;;;;17.80;nan;98795.38;4994415;28;20008;-73
2022/06/09 02:23:22;;;;;;;;;;;;;;;17.72;nan;98788.41;4994704;28;19925;-74
2022/06/09 02:25:47;;;;;;;;;;;;;;;17.79;nan;98793.75;4994299;28;20292;-74
2022/06/09 02:28:13;;;;;;;;;;;;;;;17.92;nan;98793.72;4993179;28;19925;-72
2022/06/09 02:30:38;;;;;;;;;;;;;;;17.99;nan;98802.53;4994696;28;20011;-72
2022/06/09 02:33:04;;;;;;;;;;;;;;;18.03;nan;98801.06;4993054;28;19939;-72
2022/06/09 02:35:29;;;;;;;;;;;;;;;17.94;nan;98799.66;4994777;28;19917;-72
2022/06/09 02:37:55;;;;;;;;;;;;;;;17.95;nan;98798.66;4994148;28;19921;-74
2022/06/09 02:40:20;;;;;;;;;;;;;;;17.91;nan;98789.41;4994130;28;19925;-73
2022/06/09 02:42:46;;;;;;;;;;;;;;;17.87;nan;98796.19;4994196;28;19924;-74
2022/06/09 02:45:15;;;;;;;;;;;;;;;17.89;nan;98799.47;4993815;28;19922;-72
2022/06/09 02:47:41;;;;;;;;;;;;;;;17.92;nan;98788.38;4994219;28;19925;-73
2022/06/09 02:50:06;;;;;;;;;;;;;;;17.89;nan;98794.16;4993560;28;19918;-72
2022/06/09 02:52:32;;;;;;;;;;;;;;;17.86;nan;98794.53;4994241;28;19966;-72
2022/06/09 02:54:57;;;;;;;;;;;;;;;17.53;nan;98800.72;4993423;28;19918;-74
2022/06/09 02:57:25;;;;;;;;;;;;;;;17.61;nan;98801.56;4993919;28;20285;-73
2022/06/09 02:59:51;;;;;;;;;;;;;;;17.58;nan;98803.56;4993641;28;19918;-73
2022/06/09 03:02:17;;;;;;;;;;;;;;;17.58;nan;98803.56;4993990;28;19917;-73
2022/06/09 03:04:43;;;;;;;;;;;;;;;17.56;nan;98804.78;4993908;28;19917;-73
2022/06/09 03:07:08;;;;;;;;;;;;;;;17.43;nan;98805.63;4993714;28;19925;-74
2022/06/09 03:09:33;;;;;;;;;;;;;;;17.41;nan;98807.69;4992414;28;20440;-73
2022/06/09 03:11:59;;;;;;;;;;;;;;;17.46;nan;98810.53;4993367;28;20000;-73
2022/06/09 03:14:24;;;;;;;;;;;;;;;17.46;nan;98813.22;4992347;28;19921;-73
2022/06/09 03:16:50;;;;;;;;;;;;;;;17.40;nan;98827.38;4993560;28;19918;-74
2022/06/09 03:19:16;;;;;;;;;;;;;;;17.38;nan;98812.59;4989726;28;19917;-74
2022/06/09 03:21:41;;;;;;;;;;;;;;;17.28;nan;98813.00;4993736;28;20013;-74
2022/06/09 03:24:07;;;;;;;;;;;;;;;17.28;nan;98825.50;4993012;28;19922;-73
2022/06/09 03:26:32;;;;;;;;;;;;;;;17.31;nan;98823.28;4993677;28;19941;-74
2022/06/09 03:28:57;;;;;;;;;;;;;;;17.23;nan;98826.13;4992992;28;19922;-73
2022/06/09 03:31:23;;;;;;;;;;;;;;;17.32;nan;98818.75;4993350;28;19924;-74
2022/06/09 03:33:49;;;;;;;;;;;;;;;17.36;nan;98820.81;4993300;28;20008;-72
2022/06/09 03:36:15;;;;;;;;;;;;;;;17.39;nan;98830.22;4989312;28;20455;-74
2022/06/09 03:38:40;;;;;;;;;;;;;;;17.39;nan;98831.06;4991736;28;19913;-73
2022/06/09 03:41:07;;;;;;;;;;;;;;;17.39;nan;98839.06;4992976;28;19917;-73
2022/06/09 03:43:32;;;;;;;;;;;;;;;17.22;nan;98832.47;4993198;28;19963;-73
2022/06/09 03:45:58;;;;;;;;;;;;;;;17.14;nan;98838.00;4992795;28;19953;-73
2022/06/09 03:48:23;;;;;;;;;;;;;;;17.17;nan;98842.94;4993037;28;20393;-72
2022/06/09 03:50:48;;;;;;;;;;;;;;;17.20;nan;98838.00;4993015;28;20015;-73
2022/06/09 03:53:14;;;;;;;;;;;;;;;17.25;nan;98839.25;4992569;28;20396;-73
2022/06/09 03:55:39;;;;;;;;;;;;;;;17.26;nan;98839.03;4992773;28;19925;-73
2022/06/09 03:58:04;;;;;;;;;;;;;;;17.25;nan;98841.91;4992696;28;20448;-73
2022/06/09 04:00:31;;;;;;;;;;;;;;;17.03;nan;98839.41;4992419;28;19921;-73
2022/06/09 04:02:56;;;;;;;;;;;;;;;17.01;nan;98848.63;4991873;28;19918;-73
2022/06/09 04:05:22;;;;;;;;;;;;;;;17.03;nan;98841.25;4992847;28;19925;-73
2022/06/09 04:07:48;;;;;;;;;;;;;;;17.06;nan;98846.19;4992696;28;19925;-73
2022/06/09 04:10:15;;;;;;;;;;;;;;;17.04;nan;98838.38;4991002;28;19917;-74
2022/06/09 04:12:41;;;;;;;;;;;;;;;17.12;nan;98842.72;4992687;28;19918;-73
2022/06/09 04:15:06;;;;;;;;;;;;;;;17.16;nan;98846.59;4990967;28;20354;-73
2022/06/09 04:17:31;;;;;;;;;;;;;;;17.23;nan;98846.63;4992437;28;19953;-74
2022/06/09 04:19:57;;;;;;;;;;;;;;;17.31;nan;98855.28;4992195;28;19922;-73
2022/06/09 04:22:22;;;;;;;;;;;;;;;17.42;nan;98845.84;4992522;28;19924;-73
2022/06/09 04:24:47;;;;;;;;;;;;;;;17.45;nan;98848.09;4992197;28;20374;-73
2022/06/09 04:27:13;;;;;;;;;;;;;;;17.45;nan;98846.25;4992340;28;20006;-73
2022/06/09 04:29:38;;;;;;;;;;;;;;;17.50;nan;98859.78;4992623;28;19917;-74
2022/06/09 04:32:04;;;;;;;;;;;;;;;17.55;nan;98857.31;4991677;28;19917;-74
2022/06/09 04:34:30;;;;;;;;;;;;;;;17.63;nan;98866.19;4992301;28;19917;-74
2022/06/09 04:36:55;;;;;;;;;;;;;;;17.66;nan;98868.47;4991983;28;20033;-73
2022/06/09 04:39:20;;;;;;;;;;;;;;;17.72;nan;98864.97;4992060;28;19917;-73
2022/06/09 04:41:46;;;;;;;;;;;;;;;17.73;nan;98869.28;4992259;28;19918;-73
2022/06/09 04:44:11;;;;;;;;;;;;;;;17.81;nan;98877.91;4991835;28;19951;-74
2022/06/09 04:46:36;;;;;;;;;;;;;;;17.85;nan;98886.31;4991900;28;20349;-73
2022/06/09 04:49:02;;;;;;;;;;;;;;;17.74;nan;98886.91;4991509;28;20417;-74
2022/06/09 04:51:28;;;;;;;;;;;;;;;17.81;nan;98893.09;4991937;28;20290;-75
2022/06/09 04:53:53;;;;;;;;;;;;;;;17.97;nan;98892.66;4991066;28;19964;-75
2022/06/09 04:56:19;;;;;;;;;;;;;;;18.05;nan;98899.66;4990617;28;19964;-74
2022/06/09 04:58:47;;;;;;;;;;;;;;;18.08;nan;98904.59;4991824;28;19922;-73
2022/06/09 05:01:16;;;;;;;;;;;;;;;18.18;nan;98900.47;4990500;28;20017;-73
2022/06/09 05:03:41;;;;;;;;;;;;;;;18.27;nan;98903.72;4990322;28;19917;-74
2022/06/09 05:06:06;;;;;;;;;;;;;;;18.38;nan;98911.94;4990240;28;20487;-74
2022/06/09 05:08:32;;;;;;;;;;;;;;;18.42;nan;98902.50;4991843;28;20290;-73
2022/06/09 05:10:57;;;;;;;;;;;;;;;18.49;nan;98904.34;4991187;28;19921;-74
2022/06/09 05:13:22;;;;;;;;;;;;;;;18.55;nan;98901.69;4991648;28;20403;-74
2022/06/09 05:15:49;;;;;;;;;;;;;;;18.57;nan;98904.13;4991662;28;19925;-74
2022/06/09 05:18:15;;;;;;;;;;;;;;;18.58;nan;98905.75;4991446;28;20353;-73
2022/06/09 05:20:40;;;;;;;;;;;;;;;18.44;nan;98909.50;4990196;28;19933;-76
2022/06/09 05:23:06;;;;;;;;;;;;;;;18.46;nan;98912.75;4991118;28;19921;-77
2022/06/09 05:25:31;;;;;;;;;;;;;;;18.47;nan;98914.41;4991407;28;19921;-77
2022/06/09 05:27:59;;;;;;;;;;;;;;;18.50;nan;98919.31;4991482;28;19976;-76
2022/06/09 05:30:24;;;;;;;;;;;;;;;18.50;nan;98916.63;4991562;28;19925;-76
2022/06/09 05:32:50;;;;;;;;;;;;;;;18.41;nan;98922.22;4991283;28;19918;-75
2022/06/09 05:35:16;;;;;;;;;;;;;;;18.35;nan;98920.38;4987303;28;19917;-76
2022/06/09 05:45:57;;;;;;;;;;;;;;;17.94;nan;98925.94;4988909;28;19921;-75
2022/06/09 05:48:22;;;;;;;;;;;;;;;18.03;nan;98931.88;4991522;28;19925;-75
2022/06/09 05:50:48;;;;;;;;;;;;;;;18.20;nan;98930.44;4989306;28;19917;-74
2022/06/09 05:53:14;;;;;;;;;;;;;;;18.37;nan;98936.22;4989801;28;20009;-73
2022/06/09 05:55:39;;;;;;;;;;;;;;;18.56;nan;98939.88;4988812;28;21368;-75
2022/06/09 05:58:04;;;;;;;;;;;;;;;18.76;nan;98940.66;4988896;28;19926;-73
2022/06/09 06:00:30;;;;;;;;;;;;;;;18.89;nan;98937.97;4989288;28;19957;-73
2022/06/09 06:02:55;;;;;;;;;;;;;;;18.83;nan;98933.47;4991219;28;20012;-74
2022/06/09 06:08:06;;;;;;;;;;;;;;;18.95;nan;98934.44;4990293;28;19975;-75
2022/06/09 06:10:32;;;;;;;;;;;;;;;19.12;nan;98935.59;4988344;28;19918;-75
2022/06/09 06:12:57;;;;;;;;;;;;;;;19.19;nan;98939.06;4990389;28;19981;-74
2022/06/09 06:15:22;;;;;;;;;;;;;;;19.28;nan;98954.88;4985070;28;19918;-73
2022/06/09 06:17:48;;;;;;;;;;;;;;;19.34;nan;98954.84;4989088;28;20400;-74
2022/06/09 06:20:13;;;;;;;;;;;;;;;19.48;nan;98950.28;4969460;28;19999;-73
2022/06/09 06:22:39;;;;;;;;;;;;;;;19.47;nan;98960.16;4989117;28;20393;-75
2022/06/09 06:25:06;;;;;;;;;;;;;;;19.58;nan;98961.31;4991321;28;19968;-74
2022/06/09 06:27:31;;;;;;;;;;;;;;;19.59;nan;98953.09;4994244;28;19918;-76
2022/06/09 06:29:56;;;;;;;;;;;;;;;19.57;nan;98957.00;4994287;28;19917;-73
2022/06/09 06:32:22;;;;;;;;;;;;;;;19.68;nan;98955.50;4645688;28;9999644;-73
2022/06/09 06:34:47;;;;;;;;;;;;;;;19.71;nan;98955.06;4984186;28;19918;-73
2022/06/09 06:37:13;;;;;;;;;;;;;;;19.72;nan;98946.00;4990664;28;19929;-75
2022/06/09 06:39:39;;;;;;;;;;;;;;;19.78;nan;98950.50;4985215;28;19922;-74
2022/06/09 06:42:04;;;;;;;;;;;;;;;19.92;nan;98952.84;4986934;28;19948;-76
2022/06/09 06:44:34;;;;;;;;;;;;;;;19.98;nan;98959.19;4991641;28;19921;-74
2022/06/09 06:47:00;;;;;;;;;;;;;;;20.13;nan;98956.22;4988739;28;19968;-74
2022/06/09 06:49:25;;;;;;;;;;;;;;;20.24;nan;98959.00;4989741;28;19918;-73
2022/06/09 06:51:50;;;;;;;;;;;;;;;20.28;nan;98954.00;4985064;28;20267;-75
2022/06/09 06:54:16;;;;;;;;;;;;;;;20.37;nan;98955.41;4638175;28;9999698;-74
2022/06/09 06:56:41;;;;;;;;;;;;;;;20.33;nan;98959.56;4984996;28;20056;-75
2022/06/09 06:59:06;;;;;;;;;;;;;;;20.35;nan;98962.84;4993426;28;19964;-74
2022/06/09 07:01:32;;;;;;;;;;;;;;;20.28;nan;98965.56;4993068;28;20404;-74
2022/06/09 07:03:57;;;;;;;;;;;;;;;20.31;nan;98967.00;4993211;28;19929;-75
2022/06/09 07:06:23;;;;;;;;;;;;;;;20.36;nan;98975.22;4992660;28;19917;-73
2022/06/09 07:08:49;;;;;;;;;;;;;;;20.39;nan;98982.78;4986727;28;19940;-74
2022/06/09 07:11:14;;;;;;;;;;;;;;;20.50;nan;98986.66;4982150;28;19976;-74
2022/06/09 07:13:40;;;;;;;;;;;;;;;20.51;nan;98985.56;4989602;28;20049;-73
2022/06/09 07:16:06;;;;;;;;;;;;;;;20.53;nan;98987.00;4983139;28;19918;-74
2022/06/09 07:18:34;;;;;;;;;;;;;;;20.54;nan;98987.84;4983603;28;19918;-73
2022/06/09 07:21:00;;;;;;;;;;;;;;;20.68;nan;98984.78;4982089;28;19937;-73
2022/06/09 07:23:26;;;;;;;;;;;;;;;20.72;nan;98980.66;4982996;28;20366;-72
2022/06/09 07:25:52;;;;;;;;;;;;;;;20.75;nan;98979.38;4979492;28;19914;-73
2022/06/09 07:28:17;;;;;;;;;;;;;;;20.77;nan;98986.16;4977189;28;19924;-72
2022/06/09 07:30:43;;;;;;;;;;;;;;;20.84;nan;98984.25;4982694;28;19921;-72
2022/06/09 07:33:08;;;;;;;;;;;;;;;20.97;nan;98993.19;4980174;28;19925;-74
2022/06/09 07:35:35;;;;;;;;;;;;;;;21.08;nan;98982.53;4982770;28;20016;-75
2022/06/09 07:38:04;;;;;;;;;;;;;;;21.21;nan;98986.91;4983138;28;20421;-73
2022/06/09 07:40:30;;;;;;;;;;;;;;;21.35;nan;98990.28;4983267;28;20361;-73
2022/06/09 07:42:55;;;;;;;;;;;;;;;21.44;nan;98989.72;4983654;28;19961;-74
2022/06/09 07:45:21;;;;;;;;;;;;;;;21.50;nan;98988.03;4992820;28;19925;-75
2022/06/09 07:47:47;;;;;;;;;;;;;;;21.54;nan;98990.03;4991686;28;19924;-73
2022/06/09 07:50:13;;;;;;;;;;;;;;;21.55;nan;98994.34;4988819;28;19964;-74
2022/06/09 07:52:40;;;;;;;;;;;;;;;21.55;nan;98997.03;4990597;28;19925;-73
2022/06/09 07:55:05;;;;;;;;;;;;;;;21.54;nan;99006.13;4991227;28;19922;-73
2022/06/09 07:57:32;;;;;;;;;;;;;;;21.61;nan;98995.31;4992900;28;19928;-72
2022/06/09 07:59:57;;;;;;;;;;;;;;;21.64;nan;99005.59;4991428;28;20299;-72
2022/06/09 08:02:23;;;;;;;;;;;;;;;21.69;nan;98996.84;4988794;28;19925;-72
2022/06/09 08:04:48;;;;;;;;;;;;;;;21.75;nan;98995.94;4980950;28;19925;-75
2022/06/09 08:07:13;;;;;;;;;;;;;;;21.81;nan;98990.47;4981920;28;19963;-72
2022/06/09 08:09:39;;;;;;;;;;;;;;;21.74;nan;99000.47;4982202;28;20012;-73
2022/06/09 08:12:04;;;;;;;;;;;;;;;21.77;nan;99004.59;4981687;28;20286;-74
2022/06/09 08:14:29;;;;;;;;;;;;;;;21.80;nan;98993.38;4992123;28;19924;-74
2022/06/09 08:16:55;;;;;;;;;;;;;;;21.85;nan;98985.47;4992364;28;19924;-75
2022/06/09 08:19:20;;;;;;;;;;;;;;;21.96;nan;98992.78;4992792;28;19917;-76
2022/06/09 08:21:46;;;;;;;;;;;;;;;22.07;nan;98986.59;4987710;28;19917;-79
2022/06/09 08:24:11;;;;;;;;;;;;;;;22.16;nan;98985.22;4983384;28;19924;-74
2022/06/09 08:26:36;;;;;;;;;;;;;;;22.20;nan;98986.41;4982630;28;19922;-73
2022/06/09 08:29:02;;;;;;;;;;;;;;;22.25;nan;98986.53;4991098;28;19918;-75
2022/06/09 08:31:27;;;;;;;;;;;;;;;22.34;nan;98985.13;4992049;28;20405;-76
2022/06/09 08:33:53;;;;;;;;;;;;;;;22.41;nan;98985.84;4991965;28;19918;-74
2022/06/09 08:36:18;;;;;;;;;;;;;;;22.51;nan;98979.88;4986253;28;20726;-75
2022/06/09 08:38:46;;;;;;;;;;;;;;;22.63;nan;98983.38;4981287;28;19924;-73
2022/06/09 08:41:17;;;;;;;;;;;;;;;22.77;nan;98989.38;4982681;28;19921;-72
2022/06/09 08:44:01;;;;;;;;;;;;;;;22.87;nan;98984.22;4980571;28;19918;-73
2022/06/09 08:46:42;;;;;;;;;;;;;;;22.93;nan;98977.88;4982180;28;20030;-74
2022/06/09 08:49:20;;;;;;;;;;;;;;;23.06;nan;98982.19;4986124;28;19922;-72
2022/06/09 08:51:47;;;;;;;;;;;;;;;23.21;nan;98979.81;4981745;28;19922;-77
2022/06/09 08:54:18;;;;;;;;;;;;;;;23.33;nan;98987.88;4983024;28;19918;-74
2022/06/09 08:56:45;;;;;;;;;;;;;;;23.36;nan;98977.44;4982997;28;19918;-75
2022/06/09 08:59:13;;;;;;;;;;;;;;;23.40;nan;98967.00;4981338;28;19934;-76
2022/06/09 09:01:57;;;;;;;;;;;;;;;23.40;nan;98967.00;4978162;28;19921;-74
2022/06/09 09:04:22;;;;;;;;;;;;;;;23.42;nan;98975.66;4979817;28;19972;-72
2022/06/09 09:06:56;;;;;;;;;;;;;;;23.43;nan;98966.53;4984761;28;19922;-72
2022/06/09 09:09:23;;;;;;;;;;;;;;;23.49;nan;98971.00;4980529;28;19975;-74
2022/06/09 09:11:55;;;;;;;;;;;;;;;23.55;nan;98959.25;4978081;28;19941;-74
2022/06/09 09:14:28;;;;;;;;;;;;;;;23.59;nan;98971.19;4988530;28;19953;-77
2022/06/09 09:16:57;;;;;;;;;;;;;;;23.67;nan;98968.94;4986291;28;19980;-74
2022/06/09 09:19:51;;;;;;;;;;;;;;;23.70;nan;98967.63;4990540;28;19927;-82
2022/06/09 09:22:23;;;;;;;;;;;;;;;23.72;nan;98964.69;4990952;28;19924;-78
2022/06/09 09:25:00;;;;;;;;;;;;;;;23.75;nan;98969.56;4991241;28;19921;-78
2022/06/09 09:27:35;;;;;;;;;;;;;;;23.84;nan;98963.56;4988707;28;19988;-78
2022/06/09 09:30:11;;;;;;;;;;;;;;;23.95;nan;98965.38;4989505;28;20322;-77
2022/06/09 09:32:40;;;;;;;;;;;;;;;23.98;nan;98970.28;4991286;28;19956;-78
2022/06/09 09:35:14;;;;;;;;;;;;;;;24.02;nan;98960.66;4990266;28;20027;-77
2022/06/09 09:37:44;;;;;;;;;;;;;;;24.02;nan;98963.34;4990937;28;19948;-77
2022/06/09 09:40:12;;;;;;;;;;;;;;;24.03;nan;98959.56;4990586;28;20293;-78
2022/06/09 09:42:41;;;;;;;;;;;;;;;24.05;nan;98945.84;4990023;28;19984;-76
2022/06/09 09:45:09;;;;;;;;;;;;;;;24.09;nan;98957.81;4990062;28;20004;-77
2022/06/09 09:47:55;;;;;;;;;;;;;;;24.17;nan;98961.94;4990755;28;19918;-79
2022/06/09 09:50:38;;;;;;;;;;;;;;;24.24;nan;98959.94;4987309;28;19925;-75
2022/06/09 09:53:20;;;;;;;;;;;;;;;24.26;nan;98949.75;4988347;28;20288;-76
2022/06/09 09:55:54;;;;;;;;;;;;;;;24.28;nan;98953.00;4989187;28;20004;-76
2022/06/09 09:58:19;;;;;;;;;;;;;;;24.35;nan;98953.66;4987298;28;19925;-76
2022/06/09 10:00:46;;;;;;;;;;;;;;;24.39;nan;98944.00;4992477;28;19921;-78
2022/06/09 10:08:52;;;;;;;;;;;;;;;24.40;nan;98949.16;4990348;28;19918;-76
2022/06/09 10:14:06;;;;;;;;;;;;;;;24.43;nan;98937.06;4992417;28;19917;-76
2022/06/09 10:16:32;;;;;;;;;;;;;;;24.48;nan;98948.75;4993812;28;20293;-76
2022/06/09 10:19:06;;;;;;;;;;;;;;;24.46;nan;98940.06;4992393;28;19917;-77
2022/06/09 10:21:47;;;;;;;;;;;;;;;24.42;nan;98951.59;4993987;28;19917;-77
2022/06/09 10:24:14;;;;;;;;;;;;;;;24.48;nan;98942.53;4992876;28;20012;-77
2022/06/09 10:26:40;;;;;;;;;;;;;;;24.55;nan;98937.78;4992128;28;19918;-78
2022/06/09 10:29:09;;;;;;;;;;;;;;;24.55;nan;98943.19;4993492;28;19944;-76
2022/06/09 10:31:54;;;;;;;;;;;;;;;24.58;nan;98939.16;4992743;28;20220;-75
2022/06/09 10:34:38;;;;;;;;;;;;;;;24.72;nan;98937.75;4989497;28;20446;-77
2022/06/09 10:37:36;;;;;;;;;;;;;;;24.82;nan;98933.28;4990409;28;19961;-76
2022/06/09 10:40:10;;;;;;;;;;;;;;;24.96;nan;98931.09;4981367;28;19917;-76
2022/06/09 10:42:39;;;;;;;;;;;;;;;25.02;nan;98926.56;4993699;28;19917;-76
2022/06/09 10:45:17;;;;;;;;;;;;;;;25.05;nan;98928.75;4993480;28;19964;-78
2022/06/09 10:56:40;;;;;;;;;;;;;;;25.06;nan;98922.28;3705634;22;10002615;-73
2022/06/09 10:59:10;;;;;;;;;;;;;;;25.18;nan;98920.28;4979192;28;19918;-75
2022/06/09 11:01:36;;;;;;;;;;;;;;;25.22;nan;98921.38;4984061;28;19918;-76
2022/06/09 11:04:03;;;;;;;;;;;;;;;25.19;nan;98916.50;4983239;28;19918;-74
2022/06/09 11:06:52;;;;;;;;;;;;;;;25.24;nan;98920.06;4983277;28;19921;-76
2022/06/09 11:09:39;;;;;;;;;;;;;;;25.34;nan;98919.38;4978464;28;19968;-76
2022/06/09 11:12:24;;;;;;;;;;;;;;;25.39;nan;98914.00;4982191;28;20289;-74
2022/06/09 11:15:02;;;;;;;;;;;;;;;25.35;nan;98915.59;4978675;28;19918;-77
2022/06/09 11:17:38;;;;;;;;;;;;;;;25.33;nan;98912.31;4980329;28;20380;-73
2022/06/09 11:20:25;;;;;;;;;;;;;;;25.40;nan;98912.13;4982819;28;19927;-74
2022/06/09 11:22:51;;;;;;;;;;;;;;;25.43;nan;98907.06;4985023;28;19924;-74
2022/06/09 11:25:19;;;;;;;;;;;;;;;25.43;nan;98911.63;4981677;28;19922;-74
2022/06/09 11:27:47;;;;;;;;;;;;;;;25.46;nan;98911.94;4985012;28;19917;-74
2022/06/09 11:30:31;;;;;;;;;;;;;;;25.47;nan;98908.16;4981698;28;19929;-74
2022/06/09 11:33:13;;;;;;;;;;;;;;;25.45;nan;98902.19;4981283;28;19922;-75
2022/06/09 11:35:38;;;;;;;;;;;;;;;25.46;nan;98895.72;4982055;28;20008;-74
2022/06/09 11:38:27;;;;;;;;;;;;;;;25.46;nan;98890.31;4982664;28;20015;-74
2022/06/09 11:41:08;;;;;;;;;;;;;;;25.57;nan;98883.97;4984317;28;19918;-75
2022/06/09 11:43:39;;;;;;;;;;;;;;;25.75;nan;98882.78;4983213;28;19917;-74
2022/06/09 11:46:09;;;;;;;;;;;;;;;25.89;nan;98885.88;4982490;28;20004;-75
2022/06/09 11:48:40;;;;;;;;;;;;;;;25.99;nan;98885.97;4981823;28;20009;-74
2022/06/09 11:51:07;;;;;;;;;;;;;;;26.05;nan;98879.50;4981778;28;19914;-74
2022/06/09 11:53:36;;;;;;;;;;;;;;;26.09;nan;98877.94;4982530;28;19973;-75
2022/06/09 11:56:33;;;;;;;;;;;;;;;26.12;nan;98872.00;4982488;28;20313;-75
2022/06/09 11:58:58;;;;;;;;;;;;;;;26.15;nan;98868.78;4983437;28;19918;-74
2022/06/09 12:01:27;;;;;;;;;;;;;;;26.17;nan;98863.91;4981713;28;19925;-75
2022/06/09 12:03:58;;;;;;;;;;;;;;;26.23;nan;98854.78;4984002;28;20000;-75
2022/06/09 12:06:38;;;;;;;;;;;;;;;26.38;nan;98854.91;4981187;28;19961;-74
2022/06/09 12:09:03;;;;;;;;;;;;;;;26.55;nan;98864.72;4982326;28;19936;-75
2022/06/09 12:11:49;;;;;;;;;;;;;;;26.67;nan;98857.22;4981827;28;19922;-74
2022/06/09 12:14:19;;;;;;;;;;;;;;;26.78;nan;98846.16;4980364;28;19918;-74
2022/06/09 12:17:05;;;;;;;;;;;;;;;26.93;nan;98844.59;4982778;28;19918;-74
2022/06/09 12:19:35;;;;;;;;;;;;;;;27.06;nan;98839.50;4980023;28;19968;-75
2022/06/09 12:22:19;;;;;;;;;;;;;;;27.24;nan;98835.47;4981554;28;20051;-75
2022/06/09 12:25:00;;;;;;;;;;;;;;;27.48;nan;98841.19;4983749;28;19918;-75
2022/06/09 12:27:34;;;;;;;;;;;;;;;27.64;nan;98834.72;4978583;28;19922;-74
2022/06/09 12:29:59;;;;;;;;;;;;;;;27.85;nan;98844.50;4982612;28;20004;-75
2022/06/09 12:32:29;;;;;;;;;;;;;;;27.98;nan;98849.34;4981256;28;20002;-74
2022/06/09 12:34:55;;;;;;;;;;;;;;;28.02;nan;98831.47;4983044;28;19918;-74
2022/06/09 12:37:23;;;;;;;;;;;;;;;27.86;nan;98829.88;4980369;28;19918;-74
2022/06/09 12:39:51;;;;;;;;;;;;;;;28.15;nan;98827.41;4976545;28;19914;-75
2022/06/09 12:42:21;;;;;;;;;;;;;;;28.54;nan;98837.59;4983877;28;20433;-74
2022/06/09 12:44:49;;;;;;;;;;;;;;;28.72;nan;98840.53;4976607;28;19918;-73
2022/06/09 12:47:17;;;;;;;;;;;;;;;28.99;nan;98828.47;4983435;28;19961;-74
2022/06/09 12:49:44;;;;;;;;;;;;;;;29.10;nan;98833.56;4980668;28;19914;-75
2022/06/09 12:52:20;;;;;;;;;;;;;;;29.27;nan;98835.94;4982373;28;19918;-74
2022/06/09 12:54:46;;;;;;;;;;;;;;;29.63;nan;98829.16;4979832;28;19960;-75
2022/06/09 12:57:19;;;;;;;;;;;;;;;29.81;nan;98830.34;4981286;28;20408;-76
2022/06/09 12:59:45;;;;;;;;;;;;;;;30.04;nan;98834.28;4980484;28;20421;-73
2022/06/09 13:02:10;;;;;;;;;;;;;;;30.23;nan;98821.53;4982451;28;20006;-74
2022/06/09 13:04:41;;;;;;;;;;;;;;;30.61;nan;98827.16;4982805;28;19953;-72
2022/06/09 13:07:12;;;;;;;;;;;;;;;31.11;nan;98826.50;4981303;28;19921;-74
2022/06/09 13:09:38;;;;;;;;;;;;;;;31.22;nan;98838.88;4981952;28;19924;-75
2022/06/09 13:14:50;;;;;;;;;;;;;;;31.61;nan;98821.41;4976394;28;19918;-74
2022/06/09 13:17:25;;;;;;;;;;;;;;;31.68;nan;98830.03;4983315;28;19925;-74
2022/06/09 13:19:55;;;;;;;;;;;;;;;32.01;nan;98817.16;4976333;28;19953;-74
2022/06/09 13:22:21;;;;;;;;;;;;;;;32.34;nan;98817.97;4983545;28;19972;-75
2022/06/09 13:24:46;;;;;;;;;;;;;;;32.44;nan;98820.50;4975815;28;19985;-75
2022/06/09 13:27:21;;;;;;;;;;;;;;;32.69;nan;98816.47;4982106;28;19918;-74
2022/06/09 13:29:58;;;;;;;;;;;;;;;32.76;nan;98827.78;4975869;28;19918;-74
2022/06/09 13:32:26;;;;;;;;;;;;;;;32.98;nan;98827.06;4977311;28;19918;-73
2022/06/09 13:34:55;;;;;;;;;;;;;;;33.28;nan;98829.91;4985851;28;19921;-74
2022/06/09 13:37:36;;;;;;;;;;;;;;;33.39;nan;98825.03;4983998;28;19918;-74
2022/06/09 13:40:04;;;;;;;;;;;;;;;33.16;nan;98820.63;4982582;28;19930;-74
2022/06/09 13:42:33;;;;;;;;;;;;;;;33.43;nan;98826.03;4986016;28;19964;-74
2022/06/09 13:45:04;;;;;;;;;;;;;;;33.54;nan;98832.88;4984288;28;20301;-74
2022/06/09 13:47:31;;;;;;;;;;;;;;;34.18;nan;98814.28;4986109;28;19918;-74